createdAt,value
2023-01-13T00:03:57.259Z,4
2023-01-13T00:13:57.235Z,3.8
2023-01-13T00:23:57.223Z,3.7
2023-01-13T00:33:57.241Z,3.8
2023-01-13T00:43:57.216Z,3.9
2023-01-13T00:53:57.209Z,3.7
2023-01-13T01:03:57.188Z,3.7
2023-01-13T01:13:57.190Z,3.7
2023-01-13T01:23:57.175Z,3.5
2023-01-13T01:33:57.150Z,3.4
2023-01-13T01:43:57.143Z,3.3
2023-01-13T01:53:57.147Z,3.3
2023-01-13T02:03:57.122Z,3.4
2023-01-13T02:13:57.114Z,3.5
2023-01-13T02:23:57.102Z,3.3
2023-01-13T02:33:57.094Z,3.4
2023-01-13T02:43:57.086Z,3.5
2023-01-13T02:53:57.079Z,3.4
2023-01-13T03:03:57.093Z,3.5
2023-01-13T03:13:57.100Z,3.5
2023-01-13T03:23:57.070Z,3.7
2023-01-13T03:33:57.062Z,3.7
2023-01-13T03:43:57.052Z,3.7
2023-01-13T03:53:57.031Z,3.6
2023-01-13T04:03:57.180Z,3.7
2023-01-13T04:13:57.028Z,3.7
2023-01-13T04:23:57.007Z,3.7
2023-01-13T04:33:56.992Z,3.7
2023-01-13T04:43:56.997Z,3.8
2023-01-13T04:53:56.975Z,3.9
2023-01-13T05:03:56.992Z,4
2023-01-13T05:13:56.962Z,4
2023-01-13T05:23:56.939Z,4.1
2023-01-13T05:33:56.932Z,4.1
2023-01-13T05:43:56.951Z,4.3
2023-01-13T05:53:56.930Z,4.3
2023-01-13T06:03:56.917Z,4.4
2023-01-13T06:13:56.907Z,4.4
2023-01-13T06:23:56.904Z,4.5
2023-01-13T06:33:56.961Z,4.5
2023-01-13T06:43:56.883Z,4.4
2023-01-13T06:53:56.848Z,4.5
2023-01-13T07:03:56.852Z,4.6
2023-01-13T07:13:56.831Z,4.7
2023-01-13T07:23:56.858Z,4.8
2023-01-13T07:33:56.821Z,4.9
2023-01-13T07:43:56.805Z,4.9
2023-01-13T07:53:56.781Z,4.9
2023-01-13T08:03:56.778Z,5
2023-01-13T08:13:56.769Z,5
2023-01-13T08:23:56.773Z,5.1
2023-01-13T08:33:56.746Z,5.1
2023-01-13T08:43:56.730Z,5.1
2023-01-13T08:53:56.728Z,5.2
2023-01-13T09:03:56.786Z,5.2
2023-01-13T09:13:56.707Z,5.2
2023-01-13T09:23:56.687Z,5.3
2023-01-13T09:33:56.689Z,5.4
2023-01-13T09:43:56.684Z,5.6
2023-01-13T09:53:56.668Z,5.9
2023-01-13T10:03:56.635Z,6.2
2023-01-13T10:13:56.636Z,6.4
2023-01-13T10:23:56.624Z,6.9
2023-01-13T10:33:56.614Z,7.2
2023-01-13T10:43:56.606Z,7.6
2023-01-13T10:53:56.588Z,7.9
2023-01-13T11:03:56.570Z,8.8
2023-01-13T11:13:56.546Z,9.7
2023-01-13T11:23:56.531Z,9.8
2023-01-13T11:33:56.515Z,10.8
2023-01-13T11:43:56.511Z,12.6
2023-01-13T11:53:56.506Z,13
2023-01-13T12:03:56.471Z,12.5
2023-01-13T12:13:56.462Z,13.4
2023-01-13T12:23:56.447Z,12.8
2023-01-13T12:33:56.441Z,12.6
2023-01-13T12:43:56.436Z,12.8
2023-01-13T12:53:56.511Z,13.6
2023-01-13T13:03:56.384Z,14.1
2023-01-13T13:13:56.356Z,13.2
2023-01-13T13:23:56.342Z,12.6
2023-01-13T13:33:56.336Z,12.3
2023-01-13T13:43:56.325Z,12.2
2023-01-13T13:53:56.292Z,12.2
2023-01-13T14:03:56.284Z,12.2
2023-01-13T14:13:56.233Z,11.6
2023-01-13T14:23:56.203Z,11.2
2023-01-13T14:33:56.183Z,10.8
2023-01-13T14:43:56.156Z,10.3
2023-01-13T14:53:56.142Z,9.9
2023-01-13T15:03:56.114Z,9.8
2023-01-13T15:13:56.090Z,9.7
2023-01-13T15:23:56.088Z,9.7
2023-01-13T15:33:56.056Z,9.5
2023-01-13T15:43:56.058Z,9.1
2023-01-13T15:53:56.047Z,8.7
2023-01-13T16:03:56.592Z,8.3
2023-01-13T16:13:56.016Z,8
2023-01-13T16:23:56.019Z,7.8
2023-01-13T16:33:56.031Z,7.6
2023-01-13T16:43:56.027Z,7.5
2023-01-13T16:53:56.037Z,7.4
2023-01-13T17:03:56.040Z,7.2
2023-01-13T17:13:56.011Z,7.1
2023-01-13T17:23:56.000Z,7
2023-01-13T17:33:55.974Z,6.8
2023-01-13T17:43:55.956Z,6.8
2023-01-13T17:53:55.987Z,6.7
2023-01-13T18:03:55.935Z,6.8
2023-01-13T18:13:55.939Z,6.8
2023-01-13T18:23:55.904Z,6.7
2023-01-13T18:33:55.896Z,6.7
2023-01-13T18:43:55.868Z,6.6
2023-01-13T18:53:55.883Z,6.4
2023-01-13T19:03:55.852Z,6.2
2023-01-13T19:13:55.851Z,6
2023-01-13T19:23:55.837Z,5.9
2023-01-13T19:33:55.827Z,6
2023-01-13T19:43:55.809Z,6.1
2023-01-13T19:53:55.791Z,6.1
2023-01-13T20:03:55.798Z,6.2
2023-01-13T20:13:55.788Z,6.2
2023-01-13T20:23:55.782Z,6.1
2023-01-13T20:33:55.747Z,6
2023-01-13T20:43:55.738Z,6
2023-01-13T20:53:55.737Z,5.8
2023-01-13T21:03:55.778Z,5.6
2023-01-13T21:13:55.703Z,5.3
2023-01-13T21:23:55.688Z,5
2023-01-13T21:33:55.677Z,4.9
2023-01-13T21:43:55.678Z,4.7
2023-01-13T21:53:55.669Z,4.6
2023-01-13T22:03:55.659Z,4.5
2023-01-13T22:13:57.151Z,4.5
2023-01-13T22:23:55.639Z,4.3
2023-01-13T22:33:55.625Z,3.9
2023-01-13T22:43:55.606Z,3.8
2023-01-13T22:53:55.593Z,4
2023-01-13T23:03:55.739Z,3.8
2023-01-13T23:13:55.586Z,3.7
2023-01-13T23:23:56.785Z,3.6
2023-01-13T23:33:55.564Z,3.5
2023-01-13T23:43:55.564Z,3.5
2023-01-13T23:53:55.565Z,3.3
